Terminal Aerodrome Forecast
Issued by NWS La Crosse, WI

Home | Current Version | Previous Version | Text Only | Print | Product List | Glossary On
Versions: 1 2 3 4 5 6 7 8 9 10 11 12 13 14 15 16 17 18 19 20 21 22 23 24 25 26 27 28
000
FTUS43 KARX 200525
TAFRST
TAF
KRST 200525Z 2006/2106 20015G23KT P6SM VCTS SCT015CB BKN150
      TEMPO 2006/2007 2SM TSRA BKN015CB
     FM200700 22014KT P6SM SCT015 BKN060
     FM201200 26011KT P6SM BKN150
     FM201500 30012KT P6SM SCT250
     FM201800 31013G20KT P6SM SCT250
     FM210000 27007KT P6SM SCT250
     FM210300 27012KT P6SM VCSH BKN050=

USA.gov is the U.S. government's official web portal to all federal, state and local government web resources and services.